createdAt,value
2016-06-11T00:00:35.761Z,1003.7
2016-06-11T00:02:35.720Z,1003.69
2016-06-11T00:03:35.738Z,1003.7
2016-06-11T00:04:35.726Z,1003.74
2016-06-11T00:05:35.916Z,1003.71
2016-06-11T00:06:35.966Z,1003.73
2016-06-11T00:07:35.658Z,1003.73
2016-06-11T00:08:35.660Z,1003.73
2016-06-11T00:10:35.838Z,1003.66
2016-06-11T00:11:35.778Z,1003.67
2016-06-11T00:12:35.829Z,1003.69
2016-06-11T00:13:35.988Z,1003.68
2016-06-11T00:14:36.397Z,1003.68
2016-06-11T00:15:35.619Z,1003.67
2016-06-11T00:16:35.590Z,1003.65
2016-06-11T00:17:38.531Z,1003.62
2016-06-11T00:18:35.597Z,1003.62
2016-06-11T00:19:35.475Z,1003.65
2016-06-11T00:20:35.634Z,1003.69
2016-06-11T00:21:35.575Z,1003.67
2016-06-11T00:22:35.329Z,1003.66
2016-06-11T00:23:35.503Z,1003.7
2016-06-11T00:24:35.427Z,1003.69
2016-06-11T00:25:35.494Z,1003.68
2016-06-11T00:26:35.559Z,1003.67
2016-06-11T00:27:35.328Z,1003.73
2016-06-11T00:28:35.394Z,1003.71
2016-06-11T00:29:35.178Z,1003.72
2016-06-11T00:30:35.462Z,1003.73
2016-06-11T00:31:35.418Z,1003.75
2016-06-11T00:32:35.390Z,1003.75
2016-06-11T00:33:35.424Z,1003.76
2016-06-11T00:34:35.255Z,1003.72
2016-06-11T00:35:35.321Z,1003.78
2016-06-11T00:36:35.340Z,1003.79
2016-06-11T00:37:35.233Z,1003.8
2016-06-11T00:38:35.221Z,1003.82
2016-06-11T00:39:35.208Z,1003.75
2016-06-11T00:40:35.259Z,1003.77
2016-06-11T00:41:35.105Z,1003.77
2016-06-11T00:42:35.202Z,1003.75
2016-06-11T00:43:34.940Z,1003.75
2016-06-11T00:44:34.911Z,1003.75
2016-06-11T00:45:35.039Z,1003.74
2016-06-11T00:46:34.933Z,1003.7
2016-06-11T00:47:34.999Z,1003.7
2016-06-11T00:48:34.845Z,1003.72
2016-06-11T00:49:34.770Z,1003.71
2016-06-11T00:50:34.883Z,1003.69
2016-06-11T00:51:34.746Z,1003.65
2016-06-11T00:52:34.904Z,1003.64
2016-06-11T00:53:34.783Z,1003.63
2016-06-11T00:54:34.677Z,1003.64
2016-06-11T00:55:34.820Z,1003.63
2016-06-11T00:56:34.714Z,1003.64
2016-06-11T00:57:34.841Z,1003.61
2016-06-11T00:58:34.814Z,1003.58
2016-06-11T00:59:34.567Z,1003.61
2016-06-11T01:00:37.695Z,1003.6
2016-06-11T01:01:34.791Z,1003.57
2016-06-11T01:02:34.748Z,1003.59
2016-06-11T01:03:34.704Z,1003.55
2016-06-11T01:04:34.458Z,1003.56
2016-06-11T01:05:34.538Z,1003.54
2016-06-11T01:06:34.448Z,1003.54
2016-06-11T01:07:34.403Z,1003.57
2016-06-11T01:08:34.579Z,1003.53
2016-06-11T01:09:34.473Z,1003.55
2016-06-11T01:10:34.429Z,1003.53
2016-06-11T01:11:34.526Z,1003.51
2016-06-11T01:12:34.388Z,1003.5
2016-06-11T01:13:37.485Z,1003.5
2016-06-11T01:14:34.597Z,1003.44
2016-06-11T01:15:34.350Z,1003.43
2016-06-11T01:16:34.212Z,1003.44
2016-06-11T01:17:34.920Z,1003.44
2016-06-11T01:18:34.219Z,1003.41
2016-06-11T01:19:34.393Z,1003.38
2016-06-11T01:20:34.350Z,1003.45
2016-06-11T01:21:34.353Z,1003.42
2016-06-11T01:22:34.105Z,1003.39
2016-06-11T01:24:34.330Z,1003.36
2016-06-11T01:25:34.147Z,1003.39
2016-06-11T01:26:34.009Z,1003.36
2016-06-11T01:27:34.262Z,1003.37
2016-06-11T01:28:34.249Z,1003.38
2016-06-11T01:29:33.956Z,1003.4
2016-06-11T01:30:33.944Z,1003.42
2016-06-11T01:31:34.008Z,1003.36
2016-06-11T01:32:33.903Z,1003.34
2016-06-11T01:33:33.921Z,1003.34
2016-06-11T01:34:33.846Z,1003.32
2016-06-11T01:35:33.850Z,1003.33
2016-06-11T01:36:33.899Z,1003.28
2016-06-11T01:37:33.824Z,1003.23
2016-06-11T01:38:33.796Z,1003.21
2016-06-11T01:39:33.737Z,1003.21
2016-06-11T01:40:33.724Z,1003.22
2016-06-11T01:41:33.994Z,1003.2
2016-06-11T01:42:33.683Z,1003.21
2016-06-11T01:43:33.655Z,1003.2
2016-06-11T01:44:33.831Z,1003.18
2016-06-11T01:45:33.676Z,1003.16
2016-06-11T01:46:33.852Z,1003.18
2016-06-11T01:47:33.792Z,1003.17
2016-06-11T01:48:33.670Z,1003.16
2016-06-11T01:49:33.799Z,1003.14
2016-06-11T01:50:33.771Z,1003.13
2016-06-11T01:51:33.710Z,1003.14
2016-06-11T01:52:33.792Z,1003.14
2016-06-11T01:53:33.592Z,1003.17
2016-06-11T01:54:33.579Z,1003.18
2016-06-11T01:55:33.692Z,1003.14
2016-06-11T01:56:33.539Z,1003.13
2016-06-11T01:57:33.620Z,1003.15
2016-06-11T01:58:33.576Z,1003.22
2016-06-11T01:59:34.423Z,1003.18
2016-06-11T02:00:33.333Z,1003.17
2016-06-11T02:01:33.632Z,1003.18
2016-06-11T02:02:33.276Z,1003.13
2016-06-11T02:03:33.529Z,1003.18
2016-06-11T02:04:33.220Z,1003.16
2016-06-11T02:05:33.363Z,1003.18
2016-06-11T02:06:33.382Z,1003.18
2016-06-11T02:07:33.416Z,1003.19
2016-06-11T02:08:33.341Z,1003.18
2016-06-11T02:09:33.408Z,1003.18
2016-06-11T02:10:33.270Z,1003.19
2016-06-11T02:11:33.241Z,1003.19
2016-06-11T02:12:33.370Z,1003.18
2016-06-11T02:13:33.060Z,1003.17
2016-06-11T02:14:33.360Z,1003.17
2016-06-11T02:15:33.128Z,1003.15
2016-06-11T02:16:33.272Z,1003.16
2016-06-11T02:17:32.963Z,1003.11
2016-06-11T02:18:33.200Z,1003.11
2016-06-11T02:19:32.922Z,1003.1
2016-06-11T02:20:33.144Z,1003.12
2016-06-11T02:21:33.084Z,1003.1
2016-06-11T02:22:33.134Z,1003.1
2016-06-11T02:23:32.841Z,1003.12
2016-06-11T02:24:32.968Z,1003.09
2016-06-11T02:25:32.799Z,1003.08
2016-06-11T02:26:32.991Z,1003.12
2016-06-11T02:27:32.931Z,1003.1
2016-06-11T02:28:32.965Z,1003.12
2016-06-11T02:29:32.828Z,1003.13
2016-06-11T02:30:32.893Z,1003.16
2016-06-11T02:31:32.990Z,1003.13
2016-06-11T02:32:35.743Z,1003.14
2016-06-11T02:33:32.653Z,1003.14
2016-06-11T02:34:32.609Z,1003.15
2016-06-11T02:35:32.690Z,1003.15
2016-06-11T02:36:32.693Z,1003.15
2016-06-11T02:37:32.758Z,1003.13
2016-06-11T02:38:32.575Z,1003.17
2016-06-11T02:39:32.530Z,1003.19
2016-06-11T02:40:32.580Z,1003.13
2016-06-11T02:41:32.677Z,1003.15
2016-06-11T02:42:32.790Z,1003.16
2016-06-11T02:43:32.418Z,1003.16
2016-06-11T02:44:32.796Z,1003.17
2016-06-11T02:45:32.517Z,1003.17
2016-06-11T02:46:32.568Z,1003.16
2016-06-11T02:47:32.617Z,1003.17
2016-06-11T02:48:32.589Z,1003.17
2016-06-11T02:49:32.295Z,1003.16
2016-06-11T02:50:32.564Z,1003.13
2016-06-11T02:51:32.489Z,1003.15
2016-06-11T02:52:32.430Z,1003.14
2016-06-11T02:53:32.385Z,1003.1
2016-06-11T02:54:32.310Z,1003.09
2016-06-11T02:55:32.189Z,1003.13
2016-06-11T02:56:32.177Z,1003.12
2016-06-11T02:57:32.132Z,1003.12
2016-06-11T02:58:32.433Z,1003.12
2016-06-11T02:59:32.748Z,1003.12
2016-06-11T03:00:32.314Z,1003.11
2016-06-11T03:01:32.285Z,1003.12
2016-06-11T03:02:32.211Z,1003.12
2016-06-11T03:03:32.135Z,1003.13
2016-06-11T03:04:32.294Z,1003.1
2016-06-11T03:05:32.080Z,1003.09
2016-06-11T03:06:32.175Z,1003.13
2016-06-11T03:08:32.182Z,1003.1
2016-06-11T03:09:32.154Z,1003.07
2016-06-11T03:10:32.188Z,1003.07
2016-06-11T03:11:32.112Z,1003.09
2016-06-11T03:12:31.834Z,1003.05
2016-06-11T03:13:31.807Z,1003.07
2016-06-11T03:14:31.794Z,1003.05
2016-06-11T03:15:32.078Z,1003.05
2016-06-11T03:16:31.738Z,1003.06
2016-06-11T03:17:31.725Z,1003.03
2016-06-11T03:18:31.712Z,1003.01
2016-06-11T03:19:31.763Z,1002.99
2016-06-11T03:20:31.843Z,1003
2016-06-11T03:21:31.706Z,1002.98
2016-06-11T03:22:31.741Z,1003.01
2016-06-11T03:23:31.900Z,1003.01
2016-06-11T03:24:31.574Z,1003.03
2016-06-11T03:25:31.688Z,1003.01
2016-06-11T03:26:31.800Z,1003
2016-06-11T03:27:34.694Z,1002.98
2016-06-11T03:28:31.603Z,1003.01
2016-06-11T03:29:31.621Z,1002.97
2016-06-11T03:30:31.687Z,1002.98
2016-06-11T03:31:31.674Z,1002.98
2016-06-11T03:32:31.646Z,1002.99
2016-06-11T03:33:31.650Z,1003
2016-06-11T03:34:31.653Z,1003
2016-06-11T03:35:31.639Z,1003.01
2016-06-11T03:36:31.565Z,1003.06
2016-06-11T03:37:31.568Z,1003.05
2016-06-11T03:38:31.570Z,1003.05
2016-06-11T03:39:31.356Z,1003.06
2016-06-11T03:40:31.499Z,1003.1
2016-06-11T03:41:31.330Z,1003.07
2016-06-11T03:42:31.536Z,1003.05
2016-06-11T03:43:31.399Z,1003.1
2016-06-11T03:44:31.574Z,1003.07
2016-06-11T03:45:31.655Z,1003.08
2016-06-11T03:46:31.439Z,1003.11
2016-06-11T03:47:31.177Z,1003.13
2016-06-11T03:48:31.259Z,1003.15
2016-06-11T03:49:31.324Z,1003.13
2016-06-11T03:50:31.295Z,1003.12
2016-06-11T03:51:31.221Z,1003.12
2016-06-11T03:52:31.192Z,1003.12
2016-06-11T03:53:31.024Z,1003.1
2016-06-11T03:54:30.948Z,1003.14
2016-06-11T03:55:31.217Z,1003.1
2016-06-11T03:56:31.111Z,1003.07
2016-06-11T03:57:31.176Z,1003.11
2016-06-11T03:58:31.133Z,1003.1
2016-06-11T03:59:31.151Z,1003.09
2016-06-11T04:00:31.138Z,1003.12
2016-06-11T04:01:31.048Z,1003.13
2016-06-11T04:02:31.066Z,1003.14
2016-06-11T04:03:31.038Z,1003.17
2016-06-11T04:04:31.025Z,1003.19
2016-06-11T04:05:31.029Z,1003.2
2016-06-11T04:06:31.017Z,1003.18
2016-06-11T04:07:30.909Z,1003.24
2016-06-11T04:08:30.866Z,1003.21
2016-06-11T04:09:30.838Z,1003.23
2016-06-11T04:10:30.935Z,1003.24
2016-06-11T04:11:30.766Z,1003.26
2016-06-11T04:12:30.675Z,1003.26
2016-06-11T04:13:30.772Z,1003.24
2016-06-11T04:14:30.745Z,1003.29
2016-06-11T04:15:30.731Z,1003.26
2016-06-11T04:16:31.015Z,1003.23
2016-06-11T04:17:30.785Z,1003.23
2016-06-11T04:18:30.678Z,1003.25
2016-06-11T04:20:30.435Z,1003.24
2016-06-11T04:21:30.594Z,1003.24
2016-06-11T04:22:30.566Z,1003.25
2016-06-11T04:23:30.569Z,1003.27
2016-06-11T04:24:33.495Z,1003.26
2016-06-11T04:25:30.434Z,1003.23
2016-06-11T04:26:30.531Z,1003.25
2016-06-11T04:27:30.471Z,1003.27
2016-06-11T04:28:30.475Z,1003.28
2016-06-11T04:29:33.430Z,1003.29
2016-06-11T04:30:30.481Z,1003.27
2016-06-11T04:31:30.391Z,1003.27
2016-06-11T04:32:30.409Z,1003.29
2016-06-11T04:33:30.412Z,1003.31
2016-06-11T04:34:30.431Z,1003.25
2016-06-11T04:35:30.356Z,1003.24
2016-06-11T04:36:30.062Z,1003.23
2016-06-11T04:37:30.284Z,1003.22
2016-06-11T04:38:30.302Z,1003.24
2016-06-11T04:39:30.305Z,1003.24
2016-06-11T04:40:30.261Z,1003.22
2016-06-11T04:42:30.189Z,1003.25
2016-06-11T04:43:30.208Z,1003.24
2016-06-11T04:44:30.056Z,1003.23
2016-06-11T04:45:30.417Z,1003.25
2016-06-11T04:46:30.029Z,1003.25
2016-06-11T04:47:30.033Z,1003.22
2016-06-11T04:48:30.052Z,1003.25
2016-06-11T04:49:30.117Z,1003.28
2016-06-11T04:50:29.980Z,1003.29
2016-06-11T04:51:30.077Z,1003.27
2016-06-11T04:52:30.017Z,1003.28
2016-06-11T04:53:29.974Z,1003.3
2016-06-11T04:54:29.992Z,1003.28
2016-06-11T04:55:29.979Z,1003.29
2016-06-11T04:56:29.701Z,1003.29
2016-06-11T04:57:29.813Z,1003.29
2016-06-11T04:58:29.770Z,1003.28
2016-06-11T04:59:29.680Z,1003.28
2016-06-11T05:00:29.838Z,1003.27
2016-06-11T05:01:29.873Z,1003.26
2016-06-11T05:02:29.798Z,1003.26
2016-06-11T05:03:29.801Z,1003.24
2016-06-11T05:04:29.757Z,1003.24
2016-06-11T05:05:29.651Z,1003.25
2016-06-11T05:06:32.607Z,1003.25
2016-06-11T05:07:29.736Z,1003.27
2016-06-11T05:08:32.707Z,1003.28
2016-06-11T05:09:29.523Z,1003.3
2016-06-11T05:10:29.369Z,1003.3
2016-06-11T05:11:29.467Z,1003.28
2016-06-11T05:12:29.501Z,1003.31
2016-06-11T05:13:29.487Z,1003.32
2016-06-11T05:14:29.491Z,1003.3
2016-06-11T05:15:29.541Z,1003.31
2016-06-11T05:16:32.513Z,1003.33
2016-06-11T05:17:29.360Z,1003.34
2016-06-11T05:18:29.441Z,1003.35
2016-06-11T05:19:29.492Z,1003.34
2016-06-11T05:20:29.417Z,1003.38
2016-06-11T05:21:29.403Z,1003.35
2016-06-11T05:22:29.437Z,1003.35
2016-06-11T05:23:29.082Z,1003.36
2016-06-11T05:24:29.115Z,1003.41
2016-06-11T05:25:29.432Z,1003.4
2016-06-11T05:26:29.247Z,1003.42
2016-06-11T05:27:29.233Z,1003.42
2016-06-11T05:30:29.228Z,1003.45
2016-06-11T05:31:28.934Z,1003.47
2016-06-11T05:32:28.890Z,1003.48
2016-06-11T05:33:29.159Z,1003.47
2016-06-11T05:34:29.084Z,1003.49
2016-06-11T05:35:28.884Z,1003.49
2016-06-11T05:36:28.808Z,1003.49
2016-06-11T05:37:28.952Z,1003.54
2016-06-11T05:38:28.815Z,1003.51
2016-06-11T05:39:28.755Z,1003.52
2016-06-11T05:40:28.930Z,1003.52
2016-06-11T05:41:28.777Z,1003.51
2016-06-11T05:42:28.702Z,1003.53
2016-06-11T05:43:28.690Z,1003.52
2016-06-11T05:44:28.661Z,1003.54
2016-06-11T05:45:28.619Z,1003.51
2016-06-11T05:46:28.621Z,1003.51
2016-06-11T05:47:28.655Z,1003.51
2016-06-11T05:48:28.814Z,1003.55
2016-06-11T05:49:28.568Z,1003.58
2016-06-11T05:50:28.758Z,1003.6
2016-06-11T05:51:28.526Z,1003.59
2016-06-11T05:52:28.796Z,1003.61
2016-06-11T05:53:28.471Z,1003.61
2016-06-11T05:54:28.474Z,1003.64
2016-06-11T05:55:28.616Z,1003.59
2016-06-11T05:56:28.654Z,1003.59
2016-06-11T05:57:28.465Z,1003.63
2016-06-11T05:58:28.492Z,1003.64
2016-06-11T05:59:28.504Z,1003.6
2016-06-11T06:00:28.518Z,1003.57
2016-06-11T06:01:28.523Z,1003.63
2016-06-11T06:02:28.494Z,1003.6
2016-06-11T06:03:28.746Z,1003.59
2016-06-11T06:04:28.701Z,1003.63
2016-06-11T06:05:28.532Z,1003.61
2016-06-11T06:06:28.651Z,1003.64
2016-06-11T06:07:28.612Z,1003.62
2016-06-11T06:08:28.668Z,1003.64
2016-06-11T06:09:28.723Z,1003.62
2016-06-11T06:10:31.669Z,1003.62
2016-06-11T06:11:28.471Z,1003.67
2016-06-11T06:12:28.414Z,1003.68
2016-06-11T06:13:28.653Z,1003.67
2016-06-11T06:14:28.393Z,1003.7
2016-06-11T06:15:29.038Z,1003.7
2016-06-11T06:16:28.323Z,1003.71
2016-06-11T06:17:28.281Z,1003.69
2016-06-11T06:18:28.252Z,1003.68
2016-06-11T06:19:28.225Z,1003.69
2016-06-11T06:20:28.213Z,1003.69
2016-06-11T06:21:28.186Z,1003.66
2016-06-11T06:22:28.267Z,1003.71
2016-06-11T06:23:28.333Z,1003.68
2016-06-11T06:24:28.132Z,1003.67
2016-06-11T06:25:28.104Z,1003.66
2016-06-11T06:26:28.217Z,1003.68
2016-06-11T06:27:28.079Z,1003.7
2016-06-11T06:28:28.035Z,1003.68
2016-06-11T06:29:28.023Z,1003.68
2016-06-11T06:30:27.994Z,1003.68
2016-06-11T06:31:28.107Z,1003.7
2016-06-11T06:32:31.111Z,1003.68
2016-06-11T06:33:28.050Z,1003.68
2016-06-11T06:34:27.913Z,1003.7
2016-06-11T06:35:27.917Z,1003.67
2016-06-11T06:36:27.873Z,1003.7
2016-06-11T06:37:27.859Z,1003.69
2016-06-11T06:38:27.848Z,1003.71
2016-06-11T06:39:27.804Z,1003.76
2016-06-11T06:40:27.791Z,1003.74
2016-06-11T06:41:27.888Z,1003.74
2016-06-11T06:42:28.017Z,1003.75
2016-06-11T06:44:27.975Z,1003.8
2016-06-11T06:45:28.509Z,1003.72
2016-06-11T06:46:27.919Z,1003.76
2016-06-11T06:47:27.954Z,1003.74
2016-06-11T06:48:27.924Z,1003.78
2016-06-11T06:49:27.615Z,1003.77
2016-06-11T06:50:27.728Z,1003.77
2016-06-11T06:51:27.731Z,1003.82
2016-06-11T06:52:27.546Z,1003.8
2016-06-11T06:53:27.800Z,1003.8
2016-06-11T06:54:27.584Z,1003.8
2016-06-11T06:55:27.493Z,1003.8
2016-06-11T06:56:27.762Z,1003.83
2016-06-11T06:57:27.641Z,1003.8
2016-06-11T06:58:27.440Z,1003.85
2016-06-11T06:59:27.396Z,1003.84
2016-06-11T07:00:27.384Z,1003.82
2016-06-11T07:01:27.464Z,1003.84
2016-06-11T07:02:27.390Z,1003.8
2016-06-11T07:03:27.345Z,1003.83
2016-06-11T07:04:27.428Z,1003.85
2016-06-11T07:05:27.274Z,1003.83
2016-06-11T07:06:27.559Z,1003.8
2016-06-11T07:07:27.468Z,1003.87
2016-06-11T07:08:27.580Z,1003.85
2016-06-11T07:09:27.505Z,1003.89
2016-06-11T07:10:27.383Z,1003.88
2016-06-11T07:11:27.167Z,1003.88
2016-06-11T07:12:27.123Z,1003.88
2016-06-11T07:13:27.408Z,1003.88
2016-06-11T07:14:27.099Z,1003.93
2016-06-11T07:15:27.757Z,1003.9
2016-06-11T07:16:27.323Z,1003.91
2016-06-11T07:17:27.014Z,1003.91
2016-06-11T07:18:27.002Z,1003.92
2016-06-11T07:19:27.004Z,1003.96
2016-06-11T07:20:27.211Z,1003.96
2016-06-11T07:21:26.964Z,1003.93
2016-06-11T07:22:26.920Z,1003.93
2016-06-11T07:23:26.939Z,1003.95
2016-06-11T07:24:27.020Z,1003.94
2016-06-11T07:25:27.054Z,1003.97
2016-06-11T07:26:27.073Z,1003.96
2016-06-11T07:27:26.826Z,1003.95
2016-06-11T07:28:27.033Z,1003.92
2016-06-11T07:29:27.051Z,1003.95
2016-06-11T07:30:26.960Z,1003.98
2016-06-11T07:31:26.979Z,1003.99
2016-06-11T07:32:29.950Z,1004
2016-06-11T07:33:26.860Z,1003.98
2016-06-11T07:34:26.707Z,1003.95
2016-06-11T07:35:26.757Z,1003.96
2016-06-11T07:36:26.760Z,1003.96
2016-06-11T07:37:26.888Z,1003.96
2016-06-11T07:38:26.594Z,1003.95
2016-06-11T07:39:26.582Z,1003.99
2016-06-11T07:40:26.551Z,1003.94
2016-06-11T07:41:26.853Z,1003.96
2016-06-11T07:42:26.509Z,1003.97
2016-06-11T07:43:26.498Z,1003.96
2016-06-11T07:44:26.516Z,1003.92
2016-06-11T07:45:26.975Z,1003.94
2016-06-11T07:46:26.413Z,1003.91
2016-06-11T07:47:26.432Z,1003.91
2016-06-11T07:48:26.622Z,1003.93
2016-06-11T07:49:26.656Z,1003.93
2016-06-11T07:50:26.456Z,1003.89
2016-06-11T07:51:26.600Z,1003.89
2016-06-11T07:52:26.509Z,1003.92
2016-06-11T07:54:26.594Z,1003.95
2016-06-11T07:55:26.566Z,1003.93
2016-06-11T07:56:26.521Z,1003.99
2016-06-11T07:57:26.524Z,1003.92
2016-06-11T07:58:26.481Z,1003.91
2016-06-11T07:59:26.344Z,1003.92
2016-06-11T08:00:26.425Z,1003.89
2016-06-11T08:01:26.459Z,1003.88
2016-06-11T08:02:26.337Z,1003.85
2016-06-11T08:03:26.106Z,1003.89
2016-06-11T08:04:26.405Z,1003.86
2016-06-11T08:05:26.346Z,1003.85
2016-06-11T08:06:26.209Z,1003.82
2016-06-11T08:07:26.321Z,1003.85
2016-06-11T08:09:25.952Z,1003.85
2016-06-11T08:10:25.939Z,1003.88
2016-06-11T08:11:25.911Z,1003.86
2016-06-11T08:12:26.118Z,1003.82
2016-06-11T08:13:26.121Z,1003.85
2016-06-11T08:14:26.029Z,1003.84
2016-06-11T08:15:25.877Z,1003.86
2016-06-11T08:16:25.817Z,1003.88
2016-06-11T08:17:26.086Z,1003.86
2016-06-11T08:18:26.027Z,1003.88
2016-06-11T08:19:25.827Z,1003.85
2016-06-11T08:20:26.001Z,1003.88
2016-06-11T08:21:25.957Z,1003.87
2016-06-11T08:22:25.960Z,1003.87
2016-06-11T08:23:25.824Z,1003.87
2016-06-11T08:24:25.811Z,1003.86
2016-06-11T08:25:25.861Z,1003.87
2016-06-11T08:26:25.942Z,1003.88
2016-06-11T08:27:25.898Z,1003.86
2016-06-11T08:28:25.573Z,1003.85
2016-06-11T08:29:25.795Z,1003.88
2016-06-11T08:30:25.751Z,1003.86
2016-06-11T08:31:26.379Z,1003.87
2016-06-11T08:32:25.804Z,1003.86
2016-06-11T08:33:28.685Z,1003.87
2016-06-11T08:34:25.763Z,1003.88
2016-06-11T08:35:25.719Z,1003.89
2016-06-11T08:36:25.489Z,1003.84
2016-06-11T08:37:25.398Z,1003.83
2016-06-11T08:38:25.353Z,1003.85
2016-06-11T08:39:25.481Z,1003.81
2016-06-11T08:40:25.548Z,1003.8
2016-06-11T08:41:25.379Z,1003.81
2016-06-11T08:43:25.447Z,1003.84
2016-06-11T08:44:25.513Z,1003.82
2016-06-11T08:45:25.297Z,1003.8
2016-06-11T08:46:25.534Z,1003.8
2016-06-11T08:47:25.225Z,1003.8
2016-06-11T08:48:25.478Z,1003.82
2016-06-11T08:49:25.278Z,1003.8
2016-06-11T08:50:25.328Z,1003.81
2016-06-11T08:51:25.409Z,1003.85
2016-06-11T08:52:25.350Z,1003.84
2016-06-11T08:53:25.353Z,1003.84
2016-06-11T08:54:25.216Z,1003.85
2016-06-11T08:55:25.125Z,1003.86
2016-06-11T08:56:28.206Z,1003.89
2016-06-11T08:57:25.256Z,1003.89
2016-06-11T08:58:25.243Z,1003.86
2016-06-11T08:59:25.231Z,1003.83
2016-06-11T09:00:25.000Z,1003.8
2016-06-11T09:01:25.205Z,1003.83
2016-06-11T09:02:25.131Z,1003.83
2016-06-11T09:04:25.168Z,1003.82
2016-06-11T09:05:25.108Z,1003.81
2016-06-11T09:06:25.034Z,1003.8
2016-06-11T09:08:24.945Z,1003.76
2016-06-11T09:09:25.027Z,1003.81
2016-06-11T09:10:24.999Z,1003.82
2016-06-11T09:12:24.989Z,1003.85
2016-06-11T09:14:27.934Z,1003.8
2016-06-11T09:15:24.795Z,1003.82
2016-06-11T09:16:27.908Z,1003.81
2016-06-11T09:17:24.864Z,1003.8
2016-06-11T09:19:24.886Z,1003.81
2016-06-11T09:20:24.718Z,1003.84
2016-06-11T09:21:24.752Z,1003.81
2016-06-11T09:23:24.555Z,1003.79
2016-06-11T09:24:24.542Z,1003.77
2016-06-11T09:25:24.748Z,1003.79
2016-06-11T09:26:24.486Z,1003.77
2016-06-11T09:27:24.677Z,1003.81
2016-06-11T09:28:24.679Z,1003.79
2016-06-11T09:30:24.607Z,1003.85
2016-06-11T09:31:24.408Z,1003.82
2016-06-11T09:32:24.473Z,1003.83
2016-06-11T09:33:24.523Z,1003.78
2016-06-11T09:34:24.557Z,1003.83
2016-06-11T09:35:24.529Z,1003.88
2016-06-11T09:36:24.423Z,1003.86
2016-06-11T09:38:24.288Z,1003.87
2016-06-11T09:39:24.401Z,1003.85
2016-06-11T09:40:27.435Z,1003.86
2016-06-11T09:41:24.439Z,1003.86
2016-06-11T09:42:24.331Z,1003.83
2016-06-11T09:43:24.381Z,1003.83
2016-06-11T09:44:24.307Z,1003.86
2016-06-11T09:45:24.216Z,1003.81
2016-06-11T09:46:24.282Z,1003.84
2016-06-11T09:47:24.254Z,1003.83
2016-06-11T09:48:24.319Z,1003.83
2016-06-11T09:49:33.200Z,1003.81
2016-06-11T09:50:24.044Z,1003.82
2016-06-11T09:51:24.203Z,1003.83
2016-06-11T09:52:24.222Z,1003.82
2016-06-11T09:53:24.209Z,1003.79
2016-06-11T09:54:24.118Z,1003.81
2016-06-11T09:55:33.203Z,1003.84
2016-06-11T09:56:24.140Z,1003.79
2016-06-11T09:57:24.127Z,1003.78
2016-06-11T09:58:24.069Z,1003.81
2016-06-11T10:00:24.058Z,1003.77
2016-06-11T10:03:24.146Z,1003.73
2016-06-11T10:05:50.235Z,1003.76
2016-06-11T10:06:50.268Z,1003.72
2016-06-11T10:07:50.255Z,1003.74
2016-06-11T10:08:50.133Z,1003.79
2016-06-11T10:09:50.200Z,1003.73
2016-06-11T10:10:50.140Z,1003.73
2016-06-11T10:11:50.127Z,1003.79
2016-06-11T10:12:50.145Z,1003.77
2016-06-11T10:13:50.039Z,1003.76
2016-06-11T10:14:50.090Z,1003.73
2016-06-11T10:15:50.046Z,1003.73
2016-06-11T10:17:52.942Z,1003.72
2016-06-11T10:18:49.899Z,1003.71
2016-06-11T10:19:53.465Z,1003.74
2016-06-11T10:20:49.858Z,1003.74
2016-06-11T10:21:49.986Z,1003.73
2016-06-11T10:22:49.879Z,1003.7
2016-06-11T10:23:52.851Z,1003.71
2016-06-11T10:24:52.792Z,1003.69
2016-06-11T10:25:49.670Z,1003.72
2016-06-11T10:27:50.160Z,1003.71
2016-06-11T10:28:50.133Z,1003.71
2016-06-11T10:30:50.092Z,1003.76
2016-06-11T10:31:50.204Z,1003.75
2016-06-11T10:32:49.988Z,1003.73
2016-06-11T10:33:50.008Z,1003.72
2016-06-11T10:34:50.026Z,1003.72
2016-06-11T10:35:49.982Z,1003.79
2016-06-11T10:36:49.970Z,1003.73
2016-06-11T10:37:49.941Z,1003.71
2016-06-11T10:39:54.229Z,1003.74
2016-06-11T10:41:54.360Z,1003.72
2016-06-11T10:42:57.284Z,1003.73
2016-06-11T10:43:57.272Z,1003.74
2016-06-11T10:44:54.229Z,1003.71
2016-06-11T10:45:54.232Z,1003.72
2016-06-11T10:46:55.141Z,1003.74
2016-06-11T10:47:54.128Z,1003.75
2016-06-11T10:48:54.117Z,1003.77
2016-06-11T10:49:54.119Z,1003.76
2016-06-11T10:52:03.156Z,1003.76
2016-06-11T10:53:02.722Z,1003.73
2016-06-11T10:54:02.709Z,1003.73
2016-06-11T10:55:02.588Z,1003.71
2016-06-11T10:56:02.841Z,1003.71
2016-06-11T10:57:02.641Z,1003.71
2016-06-11T10:58:02.565Z,1003.69
2016-06-11T10:59:02.600Z,1003.73
2016-06-11T11:01:02.559Z,1003.69
2016-06-11T11:03:02.425Z,1003.68
2016-06-11T11:04:02.474Z,1003.69
2016-06-11T11:05:02.493Z,1003.66
2016-06-11T11:06:05.450Z,1003.66
2016-06-11T11:07:02.405Z,1003.65
2016-06-11T11:08:02.378Z,1003.65
2016-06-11T11:09:02.349Z,1003.69
2016-06-11T11:10:02.243Z,1003.67
2016-06-11T11:12:02.280Z,1003.65
2016-06-11T11:13:02.330Z,1003.67
2016-06-11T11:14:02.036Z,1003.66
2016-06-11T11:15:02.149Z,1003.65
2016-06-11T11:16:05.245Z,1003.63
2016-06-11T11:19:02.021Z,1003.52
2016-06-11T11:20:02.102Z,1003.52
2016-06-11T11:21:02.199Z,1003.51
2016-06-11T11:22:02.139Z,1003.48
2016-06-11T11:23:02.471Z,1003.51
2016-06-11T11:24:05.114Z,1003.47
2016-06-11T11:25:01.992Z,1003.41
2016-06-11T11:26:01.980Z,1003.45
2016-06-11T11:27:02.076Z,1003.47
2016-06-11T11:28:02.017Z,1003.45
2016-06-11T11:29:01.942Z,1003.45
2016-06-11T11:30:02.024Z,1003.44
2016-06-11T11:31:01.964Z,1003.5
2016-06-11T11:32:01.952Z,1003.43
2016-06-11T11:33:01.673Z,1003.44
2016-06-11T11:34:01.676Z,1003.43
2016-06-11T11:35:01.772Z,1003.41
2016-06-11T11:36:01.589Z,1003.39
2016-06-11T11:37:04.842Z,1003.43
2016-06-11T11:38:01.812Z,1003.45
2016-06-11T11:39:01.754Z,1003.43
2016-06-11T11:40:01.633Z,1003.42
2016-06-11T11:41:01.697Z,1003.46
2016-06-11T11:42:01.716Z,1003.41
2016-06-11T11:43:01.611Z,1003.4
2016-06-11T11:45:01.663Z,1003.37
2016-06-11T11:46:01.901Z,1003.36
2016-06-11T11:47:01.419Z,1003.41
2016-06-11T11:48:01.626Z,1003.41
2016-06-11T11:49:01.582Z,1003.38
2016-06-11T11:50:01.599Z,1003.42
2016-06-11T11:51:01.557Z,1003.39
2016-06-11T11:52:01.278Z,1003.32
2016-06-11T11:53:01.375Z,1003.34
2016-06-11T11:54:01.237Z,1003.34
2016-06-11T11:55:01.225Z,1003.34
2016-06-11T11:56:01.212Z,1003.35
2016-06-11T11:57:01.200Z,1003.34
2016-06-11T11:58:01.203Z,1003.36
2016-06-11T11:59:01.409Z,1003.34
2016-06-11T12:00:04.631Z,1003.38
2016-06-11T12:01:01.119Z,1003.36
2016-06-11T12:02:01.169Z,1003.32
2016-06-11T12:03:01.109Z,1003.34
2016-06-11T12:04:01.050Z,1003.33
2016-06-11T12:05:01.052Z,1003.31
2016-06-11T12:06:01.009Z,1003.32
2016-06-11T12:07:01.371Z,1003.35
2016-06-11T12:08:01.327Z,1003.26
2016-06-11T12:09:00.971Z,1003.3
2016-06-11T12:10:00.944Z,1003.32
2016-06-11T12:11:00.993Z,1003.34
2016-06-11T12:12:00.996Z,1003.37
2016-06-11T12:13:00.906Z,1003.35
2016-06-11T12:14:00.893Z,1003.33
2016-06-11T12:16:00.868Z,1003.31
2016-06-11T12:17:00.808Z,1003.32
2016-06-11T12:18:00.780Z,1003.3
2016-06-11T12:19:00.814Z,1003.29
2016-06-11T12:20:01.005Z,1003.26
2016-06-11T12:21:01.008Z,1003.3
2016-06-11T12:22:01.480Z,1003.28
2016-06-11T12:23:00.826Z,1003.31
2016-06-11T16:15:54.819Z,1002.21
2016-06-11T16:16:54.744Z,1002.17
2016-06-11T16:17:54.996Z,1002.19
2016-06-11T16:18:54.702Z,1002.18
2016-06-11T16:19:54.691Z,1002.17
2016-06-11T16:20:54.661Z,1002.2
2016-06-11T16:21:54.650Z,1002.18
2016-06-11T16:22:54.653Z,1002.18
2016-06-11T16:23:54.624Z,1002.16
2016-06-11T16:24:54.596Z,1002.15
2016-06-11T16:25:54.599Z,1002.15
2016-06-11T16:26:55.055Z,1002.16
2016-06-11T16:27:54.590Z,1002.18
2016-06-11T16:28:54.672Z,1002.18
2016-06-11T16:29:54.518Z,1002.16
2016-06-11T16:30:54.489Z,1002.13
2016-06-11T16:31:54.492Z,1002.13
2016-06-11T16:32:54.449Z,1002.14
2016-06-11T16:33:54.437Z,1002.11
2016-06-11T16:34:54.423Z,1002.13
2016-06-11T16:35:54.411Z,1002.1
2016-06-11T16:36:54.414Z,1002.07
2016-06-11T16:37:54.371Z,1002.09